sensor_id;sensor_type;location;lat;lon;timestamp;temperature;humidity
39585;DHT22;25278;53.674;10.014;2022-07-23T05:35:39;15.50;99.90
39585;DHT22;25278;53.674;10.014;2022-07-23T05:38:04;15.80;99.90
39585;DHT22;25278;53.674;10.014;2022-07-23T05:40:30;15.80;99.90
39585;DHT22;25278;53.674;10.014;2022-07-23T05:42:55;15.70;99.90
39585;DHT22;25278;53.674;10.014;2022-07-23T05:45:21;15.70;99.90
39585;DHT22;25278;53.674;10.014;2022-07-23T05:47:47;15.70;99.90
39585;DHT22;25278;53.674;10.014;2022-07-23T05:50:13;15.70;99.90
39585;DHT22;25278;53.674;10.014;2022-07-23T05:52:38;15.80;99.90
39585;DHT22;25278;53.674;10.014;2022-07-23T05:55:04;15.90;99.90
39585;DHT22;25278;53.674;10.014;2022-07-23T05:57:30;15.90;99.90
39585;DHT22;25278;53.674;10.014;2022-07-23T05:59:55;16.00;99.90
39585;DHT22;25278;53.674;10.014;2022-07-23T06:02:21;16.00;99.90
39585;DHT22;25278;53.674;10.014;2022-07-23T06:04:46;16.00;99.90
39585;DHT22;25278;53.674;10.014;2022-07-23T06:07:12;16.10;99.90
39585;DHT22;25278;53.674;10.014;2022-07-23T06:09:37;16.10;99.90
39585;DHT22;25278;53.674;10.014;2022-07-23T06:12:03;16.00;99.90
39585;DHT22;25278;53.674;10.014;2022-07-23T06:14:28;16.00;99.90
39585;DHT22;25278;53.674;10.014;2022-07-23T06:16:54;16.00;99.90
39585;DHT22;25278;53.674;10.014;2022-07-23T06:19:19;16.00;99.90
39585;DHT22;25278;53.674;10.014;2022-07-23T06:21:44;16.00;99.90
39585;DHT22;25278;53.674;10.014;2022-07-23T06:24:10;16.00;99.90
39585;DHT22;25278;53.674;10.014;2022-07-23T06:26:35;16.00;99.90
39585;DHT22;25278;53.674;10.014;2022-07-23T06:29:01;16.00;99.90
39585;DHT22;25278;53.674;10.014;2022-07-23T06:31:26;15.90;99.90
39585;DHT22;25278;53.674;10.014;2022-07-23T06:33:52;16.10;99.90
39585;DHT22;25278;53.674;10.014;2022-07-23T06:36:17;16.20;99.90
39585;DHT22;25278;53.674;10.014;2022-07-23T06:38:43;16.40;99.90
39585;DHT22;25278;53.674;10.014;2022-07-23T06:41:08;16.50;99.90
39585;DHT22;25278;53.674;10.014;2022-07-23T06:43:34;16.80;99.90
39585;DHT22;25278;53.674;10.014;2022-07-23T06:45:59;16.90;99.90
39585;DHT22;25278;53.674;10.014;2022-07-23T06:48:25;16.80;99.90
39585;DHT22;25278;53.674;10.014;2022-07-23T06:50:50;17.00;99.90
39585;DHT22;25278;53.674;10.014;2022-07-23T06:53:17;17.10;99.90
39585;DHT22;25278;53.674;10.014;2022-07-23T06:55:43;17.10;99.90
39585;DHT22;25278;53.674;10.014;2022-07-23T06:58:08;17.10;99.90
39585;DHT22;25278;53.674;10.014;2022-07-23T07:00:35;17.10;99.90
39585;DHT22;25278;53.674;10.014;2022-07-23T07:03:01;17.20;99.90
39585;DHT22;25278;53.674;10.014;2022-07-23T07:05:26;17.20;99.90
39585;DHT22;25278;53.674;10.014;2022-07-23T07:07:54;17.30;99.90
39585;DHT22;25278;53.674;10.014;2022-07-23T07:10:19;17.20;99.90
39585;DHT22;25278;53.674;10.014;2022-07-23T07:12:45;17.10;99.90
39585;DHT22;25278;53.674;10.014;2022-07-23T07:15:10;16.80;99.90
39585;DHT22;25278;53.674;10.014;2022-07-23T07:17:37;16.60;99.90
39585;DHT22;25278;53.674;10.014;2022-07-23T07:20:02;16.50;99.90
39585;DHT22;25278;53.674;10.014;2022-07-23T07:22:29;16.30;99.90
39585;DHT22;25278;53.674;10.014;2022-07-23T07:24:54;16.40;99.90
39585;DHT22;25278;53.674;10.014;2022-07-23T07:27:20;16.40;99.90
39585;DHT22;25278;53.674;10.014;2022-07-23T07:29:45;16.50;99.90
39585;DHT22;25278;53.674;10.014;2022-07-23T07:32:11;16.70;99.90
39585;DHT22;25278;53.674;10.014;2022-07-23T07:34:36;16.80;99.90
39585;DHT22;25278;53.674;10.014;2022-07-23T07:37:02;16.80;99.90
39585;DHT22;25278;53.674;10.014;2022-07-23T07:39:27;16.90;99.90
39585;DHT22;25278;53.674;10.014;2022-07-23T07:41:53;16.70;99.90
39585;DHT22;25278;53.674;10.014;2022-07-23T07:44:18;16.80;99.90
39585;DHT22;25278;53.674;10.014;2022-07-23T07:46:44;16.90;99.90
39585;DHT22;25278;53.674;10.014;2022-07-23T07:49:09;16.90;99.90
39585;DHT22;25278;53.674;10.014;2022-07-23T07:51:35;17.10;99.90
39585;DHT22;25278;53.674;10.014;2022-07-23T07:54:00;17.20;99.90
39585;DHT22;25278;53.674;10.014;2022-07-23T07:56:26;17.30;99.90
39585;DHT22;25278;53.674;10.014;2022-07-23T07:58:51;17.30;99.90
39585;DHT22;25278;53.674;10.014;2022-07-23T08:01:17;17.50;99.90
39585;DHT22;25278;53.674;10.014;2022-07-23T08:03:44;17.70;99.90
39585;DHT22;25278;53.674;10.014;2022-07-23T08:06:09;17.90;99.90
39585;DHT22;25278;53.674;10.014;2022-07-23T08:08:35;18.10;99.90
39585;DHT22;25278;53.674;10.014;2022-07-23T08:11:00;18.20;99.90
39585;DHT22;25278;53.674;10.014;2022-07-23T08:13:27;18.20;99.90
39585;DHT22;25278;53.674;10.014;2022-07-23T08:15:52;17.90;99.90
39585;DHT22;25278;53.674;10.014;2022-07-23T08:18:20;18.00;99.90
39585;DHT22;25278;53.674;10.014;2022-07-23T08:20:46;18.00;99.90
39585;DHT22;25278;53.674;10.014;2022-07-23T08:23:12;17.80;99.90
39585;DHT22;25278;53.674;10.014;2022-07-23T08:25:38;17.70;99.90
39585;DHT22;25278;53.674;10.014;2022-07-23T08:28:05;17.90;99.90
39585;DHT22;25278;53.674;10.014;2022-07-23T08:30:31;18.10;99.90
39585;DHT22;25278;53.674;10.014;2022-07-23T08:33:00;18.30;99.90
39585;DHT22;25278;53.674;10.014;2022-07-23T08:35:27;18.20;99.90
39585;DHT22;25278;53.674;10.014;2022-07-23T08:37:54;18.30;99.90
39585;DHT22;25278;53.674;10.014;2022-07-23T08:40:19;18.70;99.90
39585;DHT22;25278;53.674;10.014;2022-07-23T08:42:47;18.80;99.90
39585;DHT22;25278;53.674;10.014;2022-07-23T08:45:12;18.70;99.90
39585;DHT22;25278;53.674;10.014;2022-07-23T08:47:38;18.70;99.90
39585;DHT22;25278;53.674;10.014;2022-07-23T08:50:04;18.70;99.90
39585;DHT22;25278;53.674;10.014;2022-07-23T08:52:30;18.70;99.90
39585;DHT22;25278;53.674;10.014;2022-07-23T08:54:55;18.60;99.90
39585;DHT22;25278;53.674;10.014;2022-07-23T08:57:21;18.40;99.90
39585;DHT22;25278;53.674;10.014;2022-07-23T08:59:47;18.50;99.90
39585;DHT22;25278;53.674;10.014;2022-07-23T09:02:14;18.70;99.90
39585;DHT22;25278;53.674;10.014;2022-07-23T09:04:39;18.80;99.90
39585;DHT22;25278;53.674;10.014;2022-07-23T09:07:05;19.20;99.90
39585;DHT22;25278;53.674;10.014;2022-07-23T09:09:30;19.30;99.90
39585;DHT22;25278;53.674;10.014;2022-07-23T09:12:06;19.20;99.90
39585;DHT22;25278;53.674;10.014;2022-07-23T09:14:36;19.50;99.90
39585;DHT22;25278;53.674;10.014;2022-07-23T09:17:09;19.60;99.90
39585;DHT22;25278;53.674;10.014;2022-07-23T09:19:34;20.00;99.90
39585;DHT22;25278;53.674;10.014;2022-07-23T09:22:15;19.90;99.90
39585;DHT22;25278;53.674;10.014;2022-07-23T09:25:01;19.50;99.90
39585;DHT22;25278;53.674;10.014;2022-07-23T09:27:44;19.50;99.90
39585;DHT22;25278;53.674;10.014;2022-07-23T09:30:10;19.90;99.90
39585;DHT22;25278;53.674;10.014;2022-07-23T09:32:35;20.40;99.90
39585;DHT22;25278;53.674;10.014;2022-07-23T09:35:01;20.30;99.90
39585;DHT22;25278;53.674;10.014;2022-07-23T09:37:26;20.40;99.90
39585;DHT22;25278;53.674;10.014;2022-07-23T09:39:52;20.20;99.90
39585;DHT22;25278;53.674;10.014;2022-07-23T09:42:28;19.90;99.90
39585;DHT22;25278;53.674;10.014;2022-07-23T09:47:21;19.10;99.90
39585;DHT22;25278;53.674;10.014;2022-07-23T09:52:55;18.60;99.90
39585;DHT22;25278;53.674;10.014;2022-07-23T09:55:19;18.50;99.90
39585;DHT22;25278;53.674;10.014;2022-07-23T09:57:55;18.40;99.90
39585;DHT22;25278;53.674;10.014;2022-07-23T10:00:21;18.20;99.90
39585;DHT22;25278;53.674;10.014;2022-07-23T10:02:48;18.00;99.90
39585;DHT22;25278;53.674;10.014;2022-07-23T10:05:14;17.90;99.90
39585;DHT22;25278;53.674;10.014;2022-07-23T10:07:40;18.10;99.90
39585;DHT22;25278;53.674;10.014;2022-07-23T10:10:07;18.30;99.90
39585;DHT22;25278;53.674;10.014;2022-07-23T10:12:33;18.40;99.90
39585;DHT22;25278;53.674;10.014;2022-07-23T10:15:17;18.30;99.90
39585;DHT22;25278;53.674;10.014;2022-07-23T10:17:43;18.50;99.90
39585;DHT22;25278;53.674;10.014;2022-07-23T10:20:08;18.60;99.90
39585;DHT22;25278;53.674;10.014;2022-07-23T10:22:37;18.70;99.90
39585;DHT22;25278;53.674;10.014;2022-07-23T10:25:12;18.80;99.90
39585;DHT22;25278;53.674;10.014;2022-07-23T10:30:50;19.60;99.90
39585;DHT22;25278;53.674;10.014;2022-07-23T10:35:44;19.20;99.90
39585;DHT22;25278;53.674;10.014;2022-07-23T10:40:53;18.50;99.90
39585;DHT22;25278;53.674;10.014;2022-07-23T10:43:18;18.30;99.90
39585;DHT22;25278;53.674;10.014;2022-07-23T10:45:44;18.30;99.90
39585;DHT22;25278;53.674;10.014;2022-07-23T10:48:17;18.20;99.90
39585;DHT22;25278;53.674;10.014;2022-07-23T10:50:43;18.30;99.90
39585;DHT22;25278;53.674;10.014;2022-07-23T10:53:13;18.30;99.90
39585;DHT22;25278;53.674;10.014;2022-07-23T10:55:42;18.50;99.90
39585;DHT22;25278;53.674;10.014;2022-07-23T10:58:07;18.90;99.90
39585;DHT22;25278;53.674;10.014;2022-07-23T11:00:34;19.40;99.90
39585;DHT22;25278;53.674;10.014;2022-07-23T11:03:00;19.60;99.90
39585;DHT22;25278;53.674;10.014;2022-07-23T11:05:39;19.40;99.90
39585;DHT22;25278;53.674;10.014;2022-07-23T11:13:25;19.60;99.90
39585;DHT22;25278;53.674;10.014;2022-07-23T11:16:03;20.10;99.90
39585;DHT22;25278;53.674;10.014;2022-07-23T11:21:42;20.10;99.90
39585;DHT22;25278;53.674;10.014;2022-07-23T11:24:02;20.30;99.90
39585;DHT22;25278;53.674;10.014;2022-07-23T11:31:58;20.80;99.90
39585;DHT22;25278;53.674;10.014;2022-07-23T11:34:31;20.70;99.90
39585;DHT22;25278;53.674;10.014;2022-07-23T11:36:57;20.70;99.90
39585;DHT22;25278;53.674;10.014;2022-07-23T11:39:24;20.50;99.90
39585;DHT22;25278;53.674;10.014;2022-07-23T11:41:50;20.70;99.90
39585;DHT22;25278;53.674;10.014;2022-07-23T11:44:32;21.30;99.90
39585;DHT22;25278;53.674;10.014;2022-07-23T11:46:58;21.90;99.90
39585;DHT22;25278;53.674;10.014;2022-07-23T11:49:24;21.90;99.90
39585;DHT22;25278;53.674;10.014;2022-07-23T11:52:09;22.30;99.90
39585;DHT22;25278;53.674;10.014;2022-07-23T11:54:36;21.80;99.90
39585;DHT22;25278;53.674;10.014;2022-07-23T11:57:02;21.60;99.90
39585;DHT22;25278;53.674;10.014;2022-07-23T11:59:29;22.10;99.90
39585;DHT22;25278;53.674;10.014;2022-07-23T12:01:57;22.60;99.90
39585;DHT22;25278;53.674;10.014;2022-07-23T12:04:23;22.30;99.90
39585;DHT22;25278;53.674;10.014;2022-07-23T12:06:49;21.80;99.90
39585;DHT22;25278;53.674;10.014;2022-07-23T12:09:14;21.70;99.90
39585;DHT22;25278;53.674;10.014;2022-07-23T12:11:55;21.60;99.90
39585;DHT22;25278;53.674;10.014;2022-07-23T12:14:21;21.40;99.90
39585;DHT22;25278;53.674;10.014;2022-07-23T12:16:47;21.10;99.90
39585;DHT22;25278;53.674;10.014;2022-07-23T12:19:12;21.30;99.90
39585;DHT22;25278;53.674;10.014;2022-07-23T12:21:38;21.30;99.90
39585;DHT22;25278;53.674;10.014;2022-07-23T12:24:07;21.60;99.90
39585;DHT22;25278;53.674;10.014;2022-07-23T12:26:33;21.30;99.90
39585;DHT22;25278;53.674;10.014;2022-07-23T12:28:58;21.50;99.90
39585;DHT22;25278;53.674;10.014;2022-07-23T12:31:27;21.50;99.90
39585;DHT22;25278;53.674;10.014;2022-07-23T12:33:52;21.70;99.90
39585;DHT22;25278;53.674;10.014;2022-07-23T12:36:18;22.20;99.90
39585;DHT22;25278;53.674;10.014;2022-07-23T12:38:47;22.60;99.90
39585;DHT22;25278;53.674;10.014;2022-07-23T12:41:14;22.20;99.90
39585;DHT22;25278;53.674;10.014;2022-07-23T12:43:40;22.30;99.90
39585;DHT22;25278;53.674;10.014;2022-07-23T12:46:09;22.30;99.90
39585;DHT22;25278;53.674;10.014;2022-07-23T12:48:39;22.30;99.90
39585;DHT22;25278;53.674;10.014;2022-07-23T12:51:06;22.20;99.90
39585;DHT22;25278;53.674;10.014;2022-07-23T12:53:32;22.30;99.90
39585;DHT22;25278;53.674;10.014;2022-07-23T12:58:43;22.30;99.90
39585;DHT22;25278;53.674;10.014;2022-07-23T13:01:10;21.30;99.90
39585;DHT22;25278;53.674;10.014;2022-07-23T13:03:37;21.20;99.90
39585;DHT22;25278;53.674;10.014;2022-07-23T13:06:04;21.30;99.90
39585;DHT22;25278;53.674;10.014;2022-07-23T13:08:30;21.30;99.90
39585;DHT22;25278;53.674;10.014;2022-07-23T13:10:56;21.50;99.90
39585;DHT22;25278;53.674;10.014;2022-07-23T13:13:24;21.90;99.90
39585;DHT22;25278;53.674;10.014;2022-07-23T13:15:51;21.80;99.90
39585;DHT22;25278;53.674;10.014;2022-07-23T13:18:17;21.50;99.90
39585;DHT22;25278;53.674;10.014;2022-07-23T13:20:46;21.10;99.90
39585;DHT22;25278;53.674;10.014;2022-07-23T13:23:12;21.70;99.90
39585;DHT22;25278;53.674;10.014;2022-07-23T13:25:38;22.30;99.90
39585;DHT22;25278;53.674;10.014;2022-07-23T13:28:03;22.50;99.90
39585;DHT22;25278;53.674;10.014;2022-07-23T13:30:29;22.10;99.90
39585;DHT22;25278;53.674;10.014;2022-07-23T13:32:54;22.50;99.90
39585;DHT22;25278;53.674;10.014;2022-07-23T13:35:20;22.10;99.90
39585;DHT22;25278;53.674;10.014;2022-07-23T13:37:45;22.30;99.90
39585;DHT22;25278;53.674;10.014;2022-07-23T13:40:11;22.40;99.90
39585;DHT22;25278;53.674;10.014;2022-07-23T13:42:37;22.70;99.90
39585;DHT22;25278;53.674;10.014;2022-07-23T13:45:05;22.80;99.90
39585;DHT22;25278;53.674;10.014;2022-07-23T13:47:31;22.70;99.90
39585;DHT22;25278;53.674;10.014;2022-07-23T13:49:56;22.10;99.90
39585;DHT22;25278;53.674;10.014;2022-07-23T13:52:22;21.60;99.90
39585;DHT22;25278;53.674;10.014;2022-07-23T13:54:47;21.80;99.90
39585;DHT22;25278;53.674;10.014;2022-07-23T13:57:13;21.90;99.90
39585;DHT22;25278;53.674;10.014;2022-07-23T13:59:38;22.80;99.90
39585;DHT22;25278;53.674;10.014;2022-07-23T14:02:04;23.00;99.90
39585;DHT22;25278;53.674;10.014;2022-07-23T14:04:30;23.60;99.90
39585;DHT22;25278;53.674;10.014;2022-07-23T14:06:55;23.10;99.90
39585;DHT22;25278;53.674;10.014;2022-07-23T14:09:21;22.60;99.90
39585;DHT22;25278;53.674;10.014;2022-07-23T14:11:47;22.10;99.90
39585;DHT22;25278;53.674;10.014;2022-07-23T14:14:12;21.90;99.90
39585;DHT22;25278;53.674;10.014;2022-07-23T14:16:38;21.80;99.90
39585;DHT22;25278;53.674;10.014;2022-07-23T14:19:03;21.90;99.90
39585;DHT22;25278;53.674;10.014;2022-07-23T14:21:29;22.40;99.90
39585;DHT22;25278;53.674;10.014;2022-07-23T14:23:54;22.80;99.90
39585;DHT22;25278;53.674;10.014;2022-07-23T14:26:19;23.50;99.90
39585;DHT22;25278;53.674;10.014;2022-07-23T14:28:45;25.20;99.90
39585;DHT22;25278;53.674;10.014;2022-07-23T14:31:10;26.40;99.90
39585;DHT22;25278;53.674;10.014;2022-07-23T14:33:36;27.40;99.90
39585;DHT22;25278;53.674;10.014;2022-07-23T14:36:01;25.60;99.90
39585;DHT22;25278;53.674;10.014;2022-07-23T14:38:27;24.20;99.90
39585;DHT22;25278;53.674;10.014;2022-07-23T14:40:53;23.10;99.90
39585;DHT22;25278;53.674;10.014;2022-07-23T14:43:18;22.70;99.90
39585;DHT22;25278;53.674;10.014;2022-07-23T14:45:44;22.40;99.90
39585;DHT22;25278;53.674;10.014;2022-07-23T14:48:10;22.20;99.90
39585;DHT22;25278;53.674;10.014;2022-07-23T14:50:35;22.00;99.90
39585;DHT22;25278;53.674;10.014;2022-07-23T14:53:01;21.50;99.90
39585;DHT22;25278;53.674;10.014;2022-07-23T14:55:26;21.40;99.90
39585;DHT22;25278;53.674;10.014;2022-07-23T14:57:52;21.30;99.90
39585;DHT22;25278;53.674;10.014;2022-07-23T15:00:17;21.10;99.90
39585;DHT22;25278;53.674;10.014;2022-07-23T15:02:42;21.00;99.90
39585;DHT22;25278;53.674;10.014;2022-07-23T15:05:08;20.50;99.90
39585;DHT22;25278;53.674;10.014;2022-07-23T15:07:34;20.40;99.90
39585;DHT22;25278;53.674;10.014;2022-07-23T15:09:59;20.80;99.90
39585;DHT22;25278;53.674;10.014;2022-07-23T15:12:25;21.00;99.90
39585;DHT22;25278;53.674;10.014;2022-07-23T15:14:50;21.00;99.90
39585;DHT22;25278;53.674;10.014;2022-07-23T15:17:16;20.60;99.90
39585;DHT22;25278;53.674;10.014;2022-07-23T15:19:42;20.60;99.90
39585;DHT22;25278;53.674;10.014;2022-07-23T15:22:07;20.30;99.90
39585;DHT22;25278;53.674;10.014;2022-07-23T15:24:33;20.10;99.90
39585;DHT22;25278;53.674;10.014;2022-07-23T15:26:58;20.00;99.90
39585;DHT22;25278;53.674;10.014;2022-07-23T15:29:24;20.00;99.90
39585;DHT22;25278;53.674;10.014;2022-07-23T15:31:49;20.10;99.90
39585;DHT22;25278;53.674;10.014;2022-07-23T15:34:15;20.40;99.90
39585;DHT22;25278;53.674;10.014;2022-07-23T15:36:41;20.90;99.90
39585;DHT22;25278;53.674;10.014;2022-07-23T15:39:06;21.70;99.90
39585;DHT22;25278;53.674;10.014;2022-07-23T15:41:32;22.00;99.90
39585;DHT22;25278;53.674;10.014;2022-07-23T15:43:57;22.70;99.90
39585;DHT22;25278;53.674;10.014;2022-07-23T15:46:23;23.50;99.90
39585;DHT22;25278;53.674;10.014;2022-07-23T15:48:49;23.50;99.90
39585;DHT22;25278;53.674;10.014;2022-07-23T15:51:14;22.50;99.90
39585;DHT22;25278;53.674;10.014;2022-07-23T15:53:41;23.80;99.90
39585;DHT22;25278;53.674;10.014;2022-07-23T15:56:06;23.30;99.90
39585;DHT22;25278;53.674;10.014;2022-07-23T15:58:32;22.30;99.90
39585;DHT22;25278;53.674;10.014;2022-07-23T16:00:58;22.00;99.90
39585;DHT22;25278;53.674;10.014;2022-07-23T16:03:24;22.00;99.90
39585;DHT22;25278;53.674;10.014;2022-07-23T16:05:49;21.90;99.90
39585;DHT22;25278;53.674;10.014;2022-07-23T16:08:15;22.30;99.90
39585;DHT22;25278;53.674;10.014;2022-07-23T16:10:40;22.90;99.90
39585;DHT22;25278;53.674;10.014;2022-07-23T16:13:06;22.70;99.90
39585;DHT22;25278;53.674;10.014;2022-07-23T16:15:31;22.40;99.90
39585;DHT22;25278;53.674;10.014;2022-07-23T16:17:57;21.50;99.90
39585;DHT22;25278;53.674;10.014;2022-07-23T16:20:23;21.20;99.90
39585;DHT22;25278;53.674;10.014;2022-07-23T16:22:48;22.40;99.90
39585;DHT22;25278;53.674;10.014;2022-07-23T16:25:14;23.30;99.90
39585;DHT22;25278;53.674;10.014;2022-07-23T16:27:39;23.30;99.90
39585;DHT22;25278;53.674;10.014;2022-07-23T16:30:07;23.60;99.90
39585;DHT22;25278;53.674;10.014;2022-07-23T16:32:33;24.90;99.90
39585;DHT22;25278;53.674;10.014;2022-07-23T16:34:58;26.00;99.90
39585;DHT22;25278;53.674;10.014;2022-07-23T16:37:24;25.50;99.90
39585;DHT22;25278;53.674;10.014;2022-07-23T16:39:50;25.80;99.90
39585;DHT22;25278;53.674;10.014;2022-07-23T16:42:15;25.90;99.90
39585;DHT22;25278;53.674;10.014;2022-07-23T16:44:41;24.80;99.90
39585;DHT22;25278;53.674;10.014;2022-07-23T16:47:07;24.60;99.90
39585;DHT22;25278;53.674;10.014;2022-07-23T16:49:32;25.80;99.90
39585;DHT22;25278;53.674;10.014;2022-07-23T16:52:00;26.60;99.90
39585;DHT22;25278;53.674;10.014;2022-07-23T16:54:25;25.50;99.90
39585;DHT22;25278;53.674;10.014;2022-07-23T16:56:50;24.90;99.90
39585;DHT22;25278;53.674;10.014;2022-07-23T16:59:16;25.50;99.90
39585;DHT22;25278;53.674;10.014;2022-07-23T17:01:41;26.30;99.90
39585;DHT22;25278;53.674;10.014;2022-07-23T17:04:07;26.30;99.90
39585;DHT22;25278;53.674;10.014;2022-07-23T17:06:33;24.60;99.90
39585;DHT22;25278;53.674;10.014;2022-07-23T17:08:59;24.30;99.90
39585;DHT22;25278;53.674;10.014;2022-07-23T17:11:24;24.20;99.90
39585;DHT22;25278;53.674;10.014;2022-07-23T17:13:50;24.00;99.90
39585;DHT22;25278;53.674;10.014;2022-07-23T17:16:15;24.90;99.90
39585;DHT22;25278;53.674;10.014;2022-07-23T17:18:41;26.30;99.90
39585;DHT22;25278;53.674;10.014;2022-07-23T17:21:06;25.40;99.90
39585;DHT22;25278;53.674;10.014;2022-07-23T17:23:32;26.20;99.90
39585;DHT22;25278;53.674;10.014;2022-07-23T17:25:57;26.70;99.90
39585;DHT22;25278;53.674;10.014;2022-07-23T17:28:23;28.30;99.90
39585;DHT22;25278;53.674;10.014;2022-07-23T17:30:48;28.00;99.90
39585;DHT22;25278;53.674;10.014;2022-07-23T17:33:14;27.10;99.90
39585;DHT22;25278;53.674;10.014;2022-07-23T17:35:39;26.30;99.90
39585;DHT22;25278;53.674;10.014;2022-07-23T17:38:05;24.80;99.90
39585;DHT22;25278;53.674;10.014;2022-07-23T17:40:31;24.70;99.90
39585;DHT22;25278;53.674;10.014;2022-07-23T17:42:56;24.00;99.90
39585;DHT22;25278;53.674;10.014;2022-07-23T17:45:23;22.80;99.90
39585;DHT22;25278;53.674;10.014;2022-07-23T17:47:48;23.10;99.90
39585;DHT22;25278;53.674;10.014;2022-07-23T17:50:14;23.10;99.90
39585;DHT22;25278;53.674;10.014;2022-07-23T17:55:09;22.00;99.90
39585;DHT22;25278;53.674;10.014;2022-07-23T17:57:34;22.10;99.90
39585;DHT22;25278;53.674;10.014;2022-07-23T18:00:00;23.50;99.90
39585;DHT22;25278;53.674;10.014;2022-07-23T18:02:25;24.80;99.90
39585;DHT22;25278;53.674;10.014;2022-07-23T18:04:50;25.70;99.90
39585;DHT22;25278;53.674;10.014;2022-07-23T18:07:16;26.10;99.90
39585;DHT22;25278;53.674;10.014;2022-07-23T18:09:41;25.20;99.90
39585;DHT22;25278;53.674;10.014;2022-07-23T18:12:07;23.60;99.90
39585;DHT22;25278;53.674;10.014;2022-07-23T18:14:33;22.20;99.90
39585;DHT22;25278;53.674;10.014;2022-07-23T18:16:59;20.70;99.90
39585;DHT22;25278;53.674;10.014;2022-07-23T18:19:24;20.10;99.90
39585;DHT22;25278;53.674;10.014;2022-07-23T18:21:49;19.60;99.90
39585;DHT22;25278;53.674;10.014;2022-07-23T18:24:15;19.20;99.90
39585;DHT22;25278;53.674;10.014;2022-07-23T18:26:40;19.00;99.90
39585;DHT22;25278;53.674;10.014;2022-07-23T18:29:06;18.90;99.90
39585;DHT22;25278;53.674;10.014;2022-07-23T18:31:31;18.60;99.90
39585;DHT22;25278;53.674;10.014;2022-07-23T18:33:57;18.50;99.90
39585;DHT22;25278;53.674;10.014;2022-07-23T18:36:23;18.40;99.90
39585;DHT22;25278;53.674;10.014;2022-07-23T18:38:48;18.40;99.90
39585;DHT22;25278;53.674;10.014;2022-07-23T18:41:14;18.20;99.90
39585;DHT22;25278;53.674;10.014;2022-07-23T18:43:39;18.10;99.90
39585;DHT22;25278;53.674;10.014;2022-07-23T18:46:05;18.00;99.90
39585;DHT22;25278;53.674;10.014;2022-07-23T18:48:30;17.90;99.90
39585;DHT22;25278;53.674;10.014;2022-07-23T18:50:56;17.90;99.90
39585;DHT22;25278;53.674;10.014;2022-07-23T18:53:21;17.80;99.90
39585;DHT22;25278;53.674;10.014;2022-07-23T18:55:47;17.70;99.90
39585;DHT22;25278;53.674;10.014;2022-07-23T18:58:12;17.70;99.90
39585;DHT22;25278;53.674;10.014;2022-07-23T19:00:38;17.60;99.90
39585;DHT22;25278;53.674;10.014;2022-07-23T19:03:03;17.60;99.90
39585;DHT22;25278;53.674;10.014;2022-07-23T19:05:29;17.50;99.90
39585;DHT22;25278;53.674;10.014;2022-07-23T19:07:55;17.40;99.90
39585;DHT22;25278;53.674;10.014;2022-07-23T19:10:20;17.30;99.90
39585;DHT22;25278;53.674;10.014;2022-07-23T19:12:46;17.20;99.90
39585;DHT22;25278;53.674;10.014;2022-07-23T19:15:11;17.20;99.90
39585;DHT22;25278;53.674;10.014;2022-07-23T19:17:37;17.10;99.90
39585;DHT22;25278;53.674;10.014;2022-07-23T19:20:04;17.00;99.90
39585;DHT22;25278;53.674;10.014;2022-07-23T19:22:31;17.00;99.90
39585;DHT22;25278;53.674;10.014;2022-07-23T19:24:56;16.80;99.90
39585;DHT22;25278;53.674;10.014;2022-07-23T19:27:22;16.70;99.90
39585;DHT22;25278;53.674;10.014;2022-07-23T19:29:47;16.70;99.90
39585;DHT22;25278;53.674;10.014;2022-07-23T19:32:13;16.70;99.90
39585;DHT22;25278;53.674;10.014;2022-07-23T19:34:38;16.50;99.90
39585;DHT22;25278;53.674;10.014;2022-07-23T19:37:04;16.50;99.90
39585;DHT22;25278;53.674;10.014;2022-07-23T19:39:36;16.40;99.90
39585;DHT22;25278;53.674;10.014;2022-07-23T19:44:27;16.30;99.90
39585;DHT22;25278;53.674;10.014;2022-07-23T19:46:53;16.20;99.90
39585;DHT22;25278;53.674;10.014;2022-07-23T19:49:18;16.20;99.90
39585;DHT22;25278;53.674;10.014;2022-07-23T19:51:43;16.20;99.90
39585;DHT22;25278;53.674;10.014;2022-07-23T19:54:09;16.10;99.90
39585;DHT22;25278;53.674;10.014;2022-07-23T19:56:34;16.10;99.90
39585;DHT22;25278;53.674;10.014;2022-07-23T19:59:00;16.10;99.90
39585;DHT22;25278;53.674;10.014;2022-07-23T20:01:26;16.00;99.90
39585;DHT22;25278;53.674;10.014;2022-07-23T20:03:51;16.00;99.90
39585;DHT22;25278;53.674;10.014;2022-07-23T20:06:17;16.00;99.90
39585;DHT22;25278;53.674;10.014;2022-07-23T20:08:42;15.90;99.90
39585;DHT22;25278;53.674;10.014;2022-07-23T20:13:33;15.80;99.90
39585;DHT22;25278;53.674;10.014;2022-07-23T20:15:59;15.70;99.90
39585;DHT22;25278;53.674;10.014;2022-07-23T20:18:24;15.80;99.90
39585;DHT22;25278;53.674;10.014;2022-07-23T20:20:52;15.80;99.90
39585;DHT22;25278;53.674;10.014;2022-07-23T20:23:19;15.70;99.90
39585;DHT22;25278;53.674;10.014;2022-07-23T20:25:45;15.80;99.90
39585;DHT22;25278;53.674;10.014;2022-07-23T20:28:10;15.70;99.90
39585;DHT22;25278;53.674;10.014;2022-07-23T20:35:28;15.50;99.90
39585;DHT22;25278;53.674;10.014;2022-07-23T20:42:45;15.40;99.90
39585;DHT22;25278;53.674;10.014;2022-07-23T20:45:11;15.40;99.90
39585;DHT22;25278;53.674;10.014;2022-07-23T20:47:36;15.30;99.90
39585;DHT22;25278;53.674;10.014;2022-07-23T20:50:02;15.20;99.90
39585;DHT22;25278;53.674;10.014;2022-07-23T20:52:28;15.20;99.90
39585;DHT22;25278;53.674;10.014;2022-07-23T20:54:53;15.10;99.90
39585;DHT22;25278;53.674;10.014;2022-07-23T20:57:19;14.90;99.90
39585;DHT22;25278;53.674;10.014;2022-07-23T20:59:44;14.90;99.90
39585;DHT22;25278;53.674;10.014;2022-07-23T21:02:10;14.80;99.90
39585;DHT22;25278;53.674;10.014;2022-07-23T21:04:35;14.70;99.90
39585;DHT22;25278;53.674;10.014;2022-07-23T21:07:01;14.70;99.90
39585;DHT22;25278;53.674;10.014;2022-07-23T21:09:26;14.60;99.90
39585;DHT22;25278;53.674;10.014;2022-07-23T21:11:52;14.60;99.90
39585;DHT22;25278;53.674;10.014;2022-07-23T21:14:17;14.40;99.90
39585;DHT22;25278;53.674;10.014;2022-07-23T21:19:09;14.30;99.90
39585;DHT22;25278;53.674;10.014;2022-07-23T21:21:34;14.30;99.90
39585;DHT22;25278;53.674;10.014;2022-07-23T21:24:00;14.30;99.90
39585;DHT22;25278;53.674;10.014;2022-07-23T21:26:25;14.30;99.90
39585;DHT22;25278;53.674;10.014;2022-07-23T21:28:51;14.30;99.90
39585;DHT22;25278;53.674;10.014;2022-07-23T21:31:16;14.20;99.90
39585;DHT22;25278;53.674;10.014;2022-07-23T21:33:42;14.10;99.90